Paula Ruble — WDF2276 — position and weather

sailwx.info

Track history (hours):
 
Tides and Currents Weather Stations Pressure Air Temp Water Temp Dewpoint Dewpoint Depression Visibility Wind Speed Wind Dir Waves Ship Positions

Paula Ruble

Owner: Crounse Corporation, Maysville, KY. More information available from US FCC via Universal Licensing System and Coast Guard Vessel Documentation Center.

Last reported at 2015-Oct-23 07:20 UTC. Time now 2016-Jul-24 16:42 UTC.
Position N 38°54' W 084°52'.
Warning: this ship's position is months out of date.

Length 42 m.

Type: Tow > 200 m length. MMSI: 367426860.

Date/timePositionNaut miles runAvg speedWind from/ knotsBaromVisibWave heightAir tempDewpointWater temp
2015-Oct-23 07:20N 38°54' W 084°52'3 3.7
2015-Oct-23 06:33N 38°57' W 084°51'5 3.7
2015-Oct-23 05:18N 39°01' W 084°52'4 3.6
2015-Oct-23 04:14N 39°05' W 084°51'2 3.5
2015-Oct-23 03:32N 39°07' W 084°48'2 2.4
2015-Oct-23 02:32N 39°08' W 084°46'4 3.6
2015-Oct-23 01:33N 39°07' W 084°42'4 4.2
2015-Oct-23 00:33N 39°04' W 084°37'4 4.0
2015-Oct-22 23:33N 39°06' W 084°33'2 2.2
2015-Oct-22 22:29N 39°06' W 084°30'3 2.8
2015-Oct-22 21:33N 39°06' W 084°26'4 3.9
2015-Oct-22 20:33N 39°03' W 084°24'4 4.3
2015-Oct-22 19:33N 39°01' W 084°19'4 4.5
2015-Oct-22 18:33N 38°57' W 084°17'4 4.5
2015-Oct-22 17:33N 38°53' W 084°14'4 4.4
2015-Oct-22 16:33N 38°48' W 084°13'2 2.1
2015-Oct-22 15:32N 38°48' W 084°10'2 2.3
2015-Oct-22 14:32N 38°47' W 084°07'9 4.3
2015-Oct-22 12:27N 38°46' W 083°56'4 4.4
2015-Oct-22 11:33N 38°45' W 083°51'3 0.9
2015-Oct-22 08:21N 38°42' W 083°49'0 0.1
2015-Oct-22 07:32N 38°42' W 083°49'0 0.2
2015-Oct-22 06:33N 38°42' W 083°49'0 0.2
2015-Oct-22 05:32N 38°42' W 083°49'  
2015-Oct-13 11:33N 38°38' W 083°42'8 3.8
2015-Oct-13 09:33N 38°43' W 083°50'4 4.1
2015-Oct-13 08:28N 38°46' W 083°54'  
Track history (hours):
 
Tides and Currents Weather Stations Pressure Air Temp Water Temp Dewpoint Dewpoint Depression Visibility Wind Speed Wind Dir Waves Ship Positions

Paula Ruble

Owner: Crounse Corporation, Maysville, KY. More information available from US FCC via Universal Licensing System and Coast Guard Vessel Documentation Center.

Last reported at 2015-Oct-23 07:20 UTC. Time now 2016-Jul-24 16:42 UTC.
Position N 38°54' W 084°52'.
Warning: this ship's position is months out of date.

Length 42 m.

Type: Tow > 200 m length. MMSI: 367426860.

Date/timePositionNaut miles runAvg speedWind from/ knotsBaromVisibWave heightAir tempDewpointWater temp
2015-Oct-23 07:20N 38°54' W 084°52'3 3.7
2015-Oct-23 06:33N 38°57' W 084°51'5 3.7
2015-Oct-23 05:18N 39°01' W 084°52'4 3.6
2015-Oct-23 04:14N 39°05' W 084°51'2 3.5
2015-Oct-23 03:32N 39°07' W 084°48'2 2.4
2015-Oct-23 02:32N 39°08' W 084°46'4 3.6
2015-Oct-23 01:33N 39°07' W 084°42'4 4.2
2015-Oct-23 00:33N 39°04' W 084°37'4 4.0
2015-Oct-22 23:33N 39°06' W 084°33'2 2.2
2015-Oct-22 22:29N 39°06' W 084°30'3 2.8
2015-Oct-22 21:33N 39°06' W 084°26'4 3.9
2015-Oct-22 20:33N 39°03' W 084°24'4 4.3
2015-Oct-22 19:33N 39°01' W 084°19'4 4.5
2015-Oct-22 18:33N 38°57' W 084°17'4 4.5
2015-Oct-22 17:33N 38°53' W 084°14'4 4.4
2015-Oct-22 16:33N 38°48' W 084°13'2 2.1
2015-Oct-22 15:32N 38°48' W 084°10'2 2.3
2015-Oct-22 14:32N 38°47' W 084°07'9 4.3
2015-Oct-22 12:27N 38°46' W 083°56'4 4.4
2015-Oct-22 11:33N 38°45' W 083°51'3 0.9
2015-Oct-22 08:21N 38°42' W 083°49'0 0.1
2015-Oct-22 07:32N 38°42' W 083°49'0 0.2
2015-Oct-22 06:33N 38°42' W 083°49'0 0.2
2015-Oct-22 05:32N 38°42' W 083°49'  
2015-Oct-13 11:33N 38°38' W 083°42'8 3.8
2015-Oct-13 09:33N 38°43' W 083°50'4 4.1
2015-Oct-13 08:28N 38°46' W 083°54'  

Dump ship's entire track history